createdAt,value
2022-12-26T00:01:24.360Z,2.08
2022-12-26T00:06:28.418Z,1.90
2022-12-26T00:11:30.061Z,2.03
2022-12-26T00:16:31.859Z,2.08
2022-12-26T00:21:33.830Z,1.88
2022-12-26T00:26:36.277Z,1.70
2022-12-26T00:31:38.143Z,1.70
2022-12-26T00:36:39.865Z,1.65
2022-12-26T00:41:41.478Z,2.03
2022-12-26T00:46:43.150Z,1.75
2022-12-26T00:51:45.650Z,1.77
2022-12-26T00:56:47.303Z,2.40
2022-12-26T01:01:49.182Z,1.92
2022-12-26T01:06:51.041Z,1.92
2022-12-26T01:11:52.633Z,2.05
2022-12-26T01:16:54.283Z,2.25
2022-12-26T01:21:55.906Z,1.83
2022-12-26T01:26:57.518Z,2.30
2022-12-26T01:31:59.226Z,2.08
2022-12-26T01:37:00.907Z,1.95
2022-12-26T01:42:02.515Z,1.98
2022-12-26T01:47:04.244Z,1.63
2022-12-26T01:52:12.320Z,2.53
2022-12-26T01:57:20.682Z,2.30
2022-12-26T02:02:23.332Z,2.15
2022-12-26T02:07:26.586Z,2.50
2022-12-26T02:12:38.689Z,2.03
2022-12-26T02:17:42.577Z,2.40
2022-12-26T02:23:05.401Z,2.03
2022-12-26T02:28:29.763Z,2.38
2022-12-26T02:34:05.643Z,2.38
2022-12-26T02:39:44.932Z,2.50
2022-12-26T02:45:13.817Z,2.35
2022-12-26T02:51:03.485Z,2.22
2022-12-26T02:56:37.000Z,1.92
2022-12-26T03:02:02.566Z,2.38
2022-12-26T03:07:31.263Z,2.50
2022-12-26T03:12:59.619Z,2.80
2022-12-26T03:18:06.507Z,2.20
2022-12-26T03:23:12.738Z,2.30
2022-12-26T03:28:15.154Z,2.17
2022-12-26T03:33:42.387Z,2.10
2022-12-26T03:38:57.748Z,2.38
2022-12-26T03:44:30.443Z,2.15
2022-12-26T03:49:55.707Z,2.30
2022-12-26T03:55:25.708Z,2.20
2022-12-26T04:00:49.959Z,2.25
2022-12-26T04:06:12.183Z,1.75
2022-12-26T04:11:36.041Z,2.08
2022-12-26T04:17:01.376Z,2.25
2022-12-26T04:22:49.566Z,2.38
2022-12-26T04:28:09.824Z,1.90
2022-12-26T04:33:38.027Z,1.45
2022-12-26T04:39:06.500Z,2.13
2022-12-26T04:44:09.977Z,1.77
2022-12-26T04:49:32.471Z,1.80
2022-12-26T04:54:34.173Z,1.90
2022-12-26T04:59:35.859Z,1.50
2022-12-26T05:04:56.130Z,1.63
2022-12-26T05:09:57.766Z,1.85
2022-12-26T05:14:59.376Z,1.63
2022-12-26T05:20:20.866Z,1.98
2022-12-26T05:25:48.212Z,1.73
2022-12-26T05:30:49.933Z,2.00
2022-12-26T05:35:51.593Z,2.63
2022-12-26T05:40:53.211Z,2.47
2022-12-26T05:45:54.944Z,1.83
2022-12-26T05:51:03.860Z,2.30
2022-12-26T05:56:13.861Z,2.20
2022-12-26T06:01:18.583Z,2.25
2022-12-26T06:06:21.624Z,2.03
2022-12-26T06:11:26.628Z,2.00
2022-12-26T06:16:28.554Z,2.00
2022-12-26T06:21:30.266Z,2.25
2022-12-26T06:26:31.914Z,2.10
2022-12-26T06:31:33.703Z,2.65
2022-12-26T06:36:35.362Z,2.22
2022-12-26T06:41:37.037Z,1.70
2022-12-26T06:46:38.714Z,2.42
2022-12-26T06:51:41.094Z,2.03
2022-12-26T06:56:42.771Z,2.10
2022-12-26T07:01:44.528Z,2.75
2022-12-26T07:06:46.265Z,2.20
2022-12-26T07:11:50.625Z,1.98
2022-12-26T07:16:52.326Z,1.90
2022-12-26T07:21:54.103Z,2.40
2022-12-26T07:26:55.735Z,2.33
2022-12-26T07:31:58.289Z,2.65
2022-12-26T07:37:00.000Z,2.40
2022-12-26T07:42:01.767Z,2.20
2022-12-26T07:47:03.383Z,2.53
2022-12-26T07:52:05.260Z,2.45
2022-12-26T07:57:46.319Z,2.42
2022-12-26T08:02:28.708Z,2.35
2022-12-26T08:07:30.457Z,2.50
2022-12-26T08:12:34.316Z,2.10
2022-12-26T08:17:35.949Z,2.33
2022-12-26T08:22:37.573Z,2.08
2022-12-26T08:27:39.493Z,2.10
2022-12-26T08:32:44.235Z,1.60
2022-12-26T08:37:48.022Z,1.67
2022-12-26T08:43:11.843Z,2.13
2022-12-26T08:48:11.237Z,1.92
2022-12-26T08:53:12.864Z,2.38
2022-12-26T08:58:14.512Z,2.03
2022-12-26T09:03:16.295Z,1.60
2022-12-26T09:08:17.933Z,2.15
2022-12-26T09:13:20.329Z,2.05
2022-12-26T09:18:21.961Z,1.83
2022-12-26T09:23:23.583Z,1.92
2022-12-26T09:28:25.211Z,1.88
2022-12-26T09:33:26.876Z,2.05
2022-12-26T09:38:28.512Z,1.95
2022-12-26T09:43:58.917Z,2.13
2022-12-26T09:49:16.462Z,1.90
2022-12-26T09:55:00.362Z,2.53
2022-12-26T10:00:05.450Z,1.80
2022-12-26T10:05:14.562Z,1.83
2022-12-26T10:10:58.410Z,2.38
2022-12-26T10:16:08.808Z,1.60
2022-12-26T10:21:13.080Z,1.63
2022-12-26T10:26:25.218Z,2.00
2022-12-26T10:31:42.395Z,2.00
2022-12-26T10:36:51.772Z,2.10
2022-12-26T10:41:58.542Z,2.00
2022-12-26T10:47:12.326Z,2.85
2022-12-26T10:52:15.906Z,2.20
2022-12-26T10:57:17.920Z,2.92
2022-12-26T11:02:31.050Z,1.80
2022-12-26T11:07:36.888Z,2.03
2022-12-26T11:12:54.434Z,1.58
2022-12-26T11:18:17.090Z,2.00
2022-12-26T11:23:33.676Z,1.92
2022-12-26T11:28:37.402Z,1.60
2022-12-26T11:33:45.080Z,1.77
2022-12-26T11:38:53.475Z,1.65
2022-12-26T11:43:59.126Z,1.90
2022-12-26T11:49:01.714Z,1.30
2022-12-26T11:54:19.044Z,2.15
2022-12-26T11:59:23.735Z,1.60
2022-12-26T12:04:25.350Z,1.50
2022-12-26T12:09:56.662Z,1.60
2022-12-26T12:15:27.404Z,1.20
2022-12-26T12:20:41.297Z,1.50
2022-12-26T12:26:04.288Z,1.88
2022-12-26T12:31:05.862Z,1.80
2022-12-26T12:36:16.986Z,1.48
2022-12-26T12:41:27.464Z,2.00
2022-12-26T12:46:50.133Z,1.38
2022-12-26T12:52:25.407Z,1.45
2022-12-26T12:57:48.159Z,1.60
2022-12-26T13:03:22.772Z,1.38
2022-12-26T13:08:32.493Z,1.60
2022-12-26T13:13:40.534Z,0.70
2022-12-26T13:18:56.846Z,1.13
2022-12-26T13:24:24.287Z,0.90
2022-12-26T13:29:40.333Z,1.35
2022-12-26T13:34:44.983Z,1.50
2022-12-26T13:39:46.736Z,1.10
2022-12-26T13:44:53.451Z,1.38
2022-12-26T13:49:55.476Z,1.23
2022-12-26T13:54:57.439Z,1.30
2022-12-26T13:59:59.028Z,0.98
2022-12-26T14:05:27.905Z,1.00
2022-12-26T14:11:11.075Z,1.15
2022-12-26T14:16:23.584Z,1.25
2022-12-26T14:21:25.215Z,1.10
2022-12-26T14:26:44.038Z,0.90
2022-12-26T14:32:04.240Z,1.10
2022-12-26T14:37:48.438Z,0.60
2022-12-26T14:43:23.601Z,0.80
2022-12-26T14:48:28.070Z,0.85
2022-12-26T14:53:34.679Z,0.60
2022-12-26T14:58:39.415Z,0.77
2022-12-26T15:03:44.840Z,0.85
2022-12-26T15:09:23.513Z,1.02
2022-12-26T15:14:40.891Z,0.98
2022-12-26T15:20:10.172Z,1.02
2022-12-26T15:25:29.816Z,1.20
2022-12-26T15:30:40.179Z,0.90
2022-12-26T15:36:01.129Z,1.50
2022-12-26T15:41:24.513Z,1.48
2022-12-26T15:46:31.214Z,1.13
2022-12-26T15:51:45.064Z,1.58
2022-12-26T15:57:06.613Z,2.13
2022-12-26T16:02:33.096Z,1.98
2022-12-26T16:07:41.019Z,1.50
2022-12-26T16:13:01.309Z,1.92
2022-12-26T16:18:17.047Z,2.28
2022-12-26T16:23:22.318Z,2.00
2022-12-26T16:28:29.634Z,1.70
2022-12-26T16:33:42.505Z,1.90
2022-12-26T16:38:44.630Z,1.52
2022-12-26T16:43:46.577Z,1.90
2022-12-26T16:48:56.177Z,1.60
2022-12-26T16:54:15.104Z,2.05
2022-12-26T16:59:21.150Z,1.80
2022-12-26T17:04:28.945Z,1.42
2022-12-26T17:09:38.400Z,2.33
2022-12-26T17:14:43.351Z,2.30
2022-12-26T17:19:47.792Z,1.63
2022-12-26T17:25:21.665Z,1.75
2022-12-26T17:30:31.779Z,1.75
2022-12-26T17:36:13.489Z,1.73
2022-12-26T17:41:00.763Z,2.00
2022-12-26T17:46:03.246Z,1.70
2022-12-26T17:51:07.587Z,1.40
2022-12-26T17:56:17.656Z,1.60
2022-12-26T18:01:21.757Z,1.60
2022-12-26T18:06:24.375Z,1.40
2022-12-26T18:11:26.043Z,1.40
2022-12-26T18:16:29.653Z,1.60
2022-12-26T18:21:31.307Z,1.38
2022-12-26T18:26:33.121Z,1.67
2022-12-26T18:31:34.820Z,1.50
2022-12-26T18:36:38.742Z,1.20
2022-12-26T18:41:40.674Z,1.52
2022-12-26T18:46:42.291Z,1.52
2022-12-26T18:51:43.952Z,1.20
2022-12-26T18:56:45.576Z,0.90
2022-12-26T19:01:47.289Z,1.15
2022-12-26T19:06:49.091Z,1.00
2022-12-26T19:11:51.057Z,1.05
2022-12-26T19:16:52.661Z,1.10
2022-12-26T19:21:54.258Z,0.90
2022-12-26T19:26:55.869Z,1.25
2022-12-26T19:31:57.641Z,0.95
2022-12-26T19:36:59.378Z,0.75
2022-12-26T19:42:01.024Z,1.00
2022-12-26T19:47:11.127Z,1.17
2022-12-26T19:52:14.428Z,1.60
2022-12-26T19:57:16.047Z,1.27
2022-12-26T20:02:18.207Z,1.40
2022-12-26T20:07:20.046Z,1.00
2022-12-26T20:12:21.739Z,0.70
2022-12-26T20:17:23.484Z,0.70
2022-12-26T20:22:25.159Z,0.98
2022-12-26T20:27:27.563Z,0.80
2022-12-26T20:32:29.189Z,0.80
2022-12-26T20:37:32.213Z,1.00
2022-12-26T20:42:33.843Z,1.35
2022-12-26T20:47:35.466Z,1.50
2022-12-26T20:52:37.128Z,1.20
2022-12-26T20:57:38.804Z,1.35
2022-12-26T21:02:40.508Z,1.58
2022-12-26T21:07:42.235Z,1.35
2022-12-26T21:12:43.857Z,1.52
2022-12-26T21:17:45.486Z,1.55
2022-12-26T21:22:47.099Z,1.50
2022-12-26T21:27:50.007Z,2.22
2022-12-26T21:32:52.069Z,3.08
2022-12-26T21:37:53.708Z,3.45
2022-12-26T21:42:55.383Z,4.45
2022-12-26T21:47:56.993Z,2.90
2022-12-26T21:52:58.674Z,3.17
2022-12-26T21:58:00.873Z,1.98
2022-12-26T22:03:21.658Z,2.00
2022-12-26T22:08:23.404Z,1.92
2022-12-26T22:13:26.796Z,1.85
2022-12-26T22:18:49.930Z,1.90
2022-12-26T22:23:52.847Z,2.17
2022-12-26T22:28:56.099Z,1.90
2022-12-26T22:34:02.352Z,2.03
2022-12-26T22:39:04.224Z,2.95
2022-12-26T22:44:05.929Z,2.53
2022-12-26T22:49:07.576Z,2.20
2022-12-26T22:54:09.203Z,2.05
2022-12-26T22:59:13.672Z,2.00
2022-12-26T23:04:24.392Z,2.47
2022-12-26T23:09:26.366Z,2.60
2022-12-26T23:14:28.062Z,2.10
2022-12-26T23:19:53.313Z,2.20
2022-12-26T23:24:54.923Z,2.17
2022-12-26T23:30:15.055Z,1.63
2022-12-26T23:35:18.612Z,1.60
2022-12-26T23:40:21.340Z,1.70
2022-12-26T23:45:23.080Z,1.90
2022-12-26T23:50:24.695Z,3.65
2022-12-26T23:55:26.332Z,2.20
